createdAt,value
2023-04-27T00:01:16.111Z,10.80
2023-04-27T00:03:42.778Z,10.61
2023-04-27T00:06:12.365Z,10.55
2023-04-27T00:08:38.949Z,10.17
2023-04-27T00:11:06.007Z,9.87
2023-04-27T00:13:32.624Z,10.40
2023-04-27T00:16:03.388Z,10.31
2023-04-27T00:18:31.159Z,10.97
2023-04-27T00:20:57.987Z,11.30
2023-04-27T00:23:24.628Z,11.36
2023-04-27T00:25:51.173Z,11.50
2023-04-27T00:28:17.842Z,11.56
2023-04-27T00:30:45.199Z,11.83
2023-04-27T00:33:11.841Z,11.91
2023-04-27T00:35:38.396Z,11.62
2023-04-27T00:38:04.939Z,12.01
2023-04-27T00:40:31.894Z,11.71
2023-04-27T00:42:58.500Z,11.53
2023-04-27T00:45:25.090Z,11.96
2023-04-27T00:47:52.066Z,11.67
2023-04-27T00:50:27.519Z,11.32
2023-04-27T00:52:54.522Z,11.72
2023-04-27T00:55:21.174Z,11.54
2023-04-27T00:57:47.716Z,11.21
2023-04-27T01:00:14.678Z,11.37
2023-04-27T01:02:42.556Z,11.53
2023-04-27T01:05:10.239Z,10.83
2023-04-27T01:07:41.024Z,10.75
2023-04-27T01:10:08.456Z,10.12
2023-04-27T01:12:35.244Z,9.92
2023-04-27T01:15:01.879Z,9.46
2023-04-27T01:17:28.497Z,9.71
2023-04-27T01:19:56.710Z,9.56
2023-04-27T01:22:23.394Z,9.54
2023-04-27T01:24:49.987Z,9.71
2023-04-27T01:27:16.524Z,9.89
2023-04-27T01:29:44.577Z,9.58
2023-04-27T01:32:12.506Z,9.03
2023-04-27T01:34:39.060Z,9.62
2023-04-27T01:37:05.663Z,9.77
2023-04-27T01:39:32.401Z,9.73
2023-04-27T01:41:58.992Z,9.62
2023-04-27T01:44:25.644Z,9.57
2023-04-27T01:46:52.229Z,9.43
2023-04-27T01:49:18.887Z,9.23
2023-04-27T01:51:45.455Z,9.36
2023-04-27T01:54:12.046Z,9.34
2023-04-27T01:56:38.612Z,9.48
2023-04-27T01:59:05.271Z,9.34
2023-04-27T02:01:31.942Z,9.70
2023-04-27T02:03:58.739Z,9.63
2023-04-27T02:06:25.470Z,9.78
2023-04-27T02:08:52.135Z,9.55
2023-04-27T02:11:18.760Z,9.99
2023-04-27T02:13:45.697Z,9.11
2023-04-27T02:16:12.382Z,9.90
2023-04-27T02:18:39.024Z,9.21
2023-04-27T02:21:10.755Z,9.33
2023-04-27T02:23:37.559Z,7.73
2023-04-27T02:26:05.041Z,10.00
2023-04-27T02:28:32.383Z,10.09
2023-04-27T02:30:59.371Z,9.40
2023-04-27T02:33:26.014Z,9.92
2023-04-27T02:35:52.645Z,9.98
2023-04-27T02:38:19.273Z,10.07
2023-04-27T02:40:46.006Z,10.11
2023-04-27T02:43:12.645Z,10.14
2023-04-27T02:45:39.260Z,10.00
2023-04-27T02:48:06.321Z,10.17
2023-04-27T02:50:32.927Z,10.33
2023-04-27T02:52:59.899Z,10.21
2023-04-27T02:55:27.648Z,10.15
2023-04-27T02:57:54.349Z,10.01
2023-04-27T03:00:20.985Z,9.39
2023-04-27T03:02:47.735Z,9.76
2023-04-27T03:05:14.491Z,8.86
2023-04-27T03:07:41.207Z,9.86
2023-04-27T03:10:08.186Z,7.47
2023-04-27T03:12:34.860Z,8.90
2023-04-27T03:15:01.548Z,9.86
2023-04-27T03:17:28.577Z,9.92
2023-04-27T03:19:55.494Z,9.66
2023-04-27T03:22:22.131Z,9.70
2023-04-27T03:24:48.694Z,10.15
2023-04-27T03:27:15.286Z,10.27
2023-04-27T03:29:41.884Z,10.40
2023-04-27T03:32:08.556Z,10.29
2023-04-27T03:34:35.435Z,10.35
2023-04-27T03:37:02.016Z,10.28
2023-04-27T03:39:28.610Z,10.42
2023-04-27T03:41:55.133Z,10.31
2023-04-27T03:44:21.721Z,10.36
2023-04-27T03:46:48.337Z,10.43
2023-04-27T03:49:15.024Z,10.40
2023-04-27T03:51:42.482Z,9.74
2023-04-27T03:54:10.108Z,10.45
2023-04-27T03:56:37.144Z,10.46
2023-04-27T03:59:06.936Z,10.39
2023-04-27T04:01:37.265Z,9.42
2023-04-27T04:04:04.029Z,10.32
2023-04-27T04:06:31.210Z,9.72
2023-04-27T04:08:58.383Z,10.04
2023-04-27T04:11:25.022Z,10.31
2023-04-27T04:13:51.705Z,9.72
2023-04-27T04:16:18.432Z,10.02
2023-04-27T04:18:45.085Z,10.29
2023-04-27T04:21:11.705Z,9.91
2023-04-27T04:23:41.133Z,10.16
2023-04-27T04:26:08.869Z,10.31
2023-04-27T04:28:35.797Z,10.45
2023-04-27T04:31:02.831Z,10.63
2023-04-27T04:33:29.482Z,10.79
2023-04-27T04:35:56.042Z,10.66
2023-04-27T04:38:23.478Z,10.67
2023-04-27T04:40:51.177Z,10.70
2023-04-27T04:43:17.854Z,10.67
2023-04-27T04:45:44.413Z,10.75
2023-04-27T04:48:11.490Z,10.85
2023-04-27T04:50:39.498Z,10.92
2023-04-27T04:53:06.583Z,10.92
2023-04-27T04:55:33.281Z,11.08
2023-04-27T04:57:59.896Z,11.25
2023-04-27T05:00:26.630Z,11.50
2023-04-27T05:02:53.505Z,11.69
2023-04-27T05:05:20.579Z,11.82
2023-04-27T05:07:47.116Z,11.90
2023-04-27T05:10:13.724Z,11.95
2023-04-27T05:12:40.317Z,11.86
2023-04-27T05:15:07.350Z,11.99
2023-04-27T05:17:33.967Z,11.67
2023-04-27T05:20:00.955Z,11.86
2023-04-27T05:22:27.511Z,12.00
2023-04-27T05:24:54.112Z,11.71
2023-04-27T05:27:20.748Z,12.17
2023-04-27T05:29:47.295Z,11.80
2023-04-27T05:32:13.834Z,12.46
2023-04-27T05:34:41.177Z,12.35
2023-04-27T05:37:07.793Z,12.67
2023-04-27T05:39:34.586Z,12.96
2023-04-27T05:42:02.728Z,13.05
2023-04-27T05:44:29.509Z,12.98
2023-04-27T05:46:56.510Z,12.91
2023-04-27T05:49:23.605Z,13.25
2023-04-27T05:51:50.284Z,12.65
2023-04-27T05:54:16.887Z,12.70
2023-04-27T05:56:43.494Z,13.20
2023-04-27T05:59:10.264Z,13.03
2023-04-27T06:01:36.961Z,13.68
2023-04-27T06:04:04.170Z,13.77
2023-04-27T06:06:34.250Z,13.23
2023-04-27T06:09:00.935Z,13.12
2023-04-27T06:11:27.604Z,13.86
2023-04-27T06:13:54.341Z,13.31
2023-04-27T06:16:21.476Z,13.49
2023-04-27T06:18:50.237Z,13.44
2023-04-27T06:21:16.835Z,14.25
2023-04-27T06:23:43.437Z,13.74
2023-04-27T06:26:10.089Z,14.58
2023-04-27T06:28:36.697Z,14.86
2023-04-27T06:31:03.467Z,14.88
2023-04-27T06:33:30.052Z,14.65
2023-04-27T06:35:56.655Z,15.33
2023-04-27T06:38:23.538Z,15.34
2023-04-27T06:40:53.297Z,15.49
2023-04-27T06:43:19.952Z,15.66
2023-04-27T06:45:46.671Z,15.89
2023-04-27T06:48:13.493Z,15.84
2023-04-27T06:50:40.567Z,15.75
2023-04-27T06:53:07.308Z,15.67
2023-04-27T06:55:34.363Z,15.75
2023-04-27T06:58:01.036Z,16.15
2023-04-27T07:00:27.687Z,15.64
2023-04-27T07:02:54.383Z,15.98
2023-04-27T07:05:21.207Z,16.21
2023-04-27T07:07:47.855Z,16.13
2023-04-27T07:10:14.503Z,16.15
2023-04-27T07:12:42.487Z,16.17
2023-04-27T07:15:09.912Z,16.23
2023-04-27T07:17:36.818Z,15.77
2023-04-27T07:20:06.140Z,16.35
2023-04-27T07:22:33.682Z,16.44
2023-04-27T07:25:00.594Z,16.15
2023-04-27T07:27:27.523Z,15.90
2023-04-27T07:29:54.802Z,16.06
2023-04-27T07:32:22.786Z,16.13
2023-04-27T07:34:53.976Z,16.52
2023-04-27T07:37:22.241Z,16.49
2023-04-27T07:39:50.444Z,16.89
2023-04-27T07:42:17.086Z,17.36
2023-04-27T07:44:43.775Z,17.36
2023-04-27T07:47:10.789Z,17.57
2023-04-27T07:49:37.742Z,16.64
2023-04-27T07:52:04.820Z,15.35
2023-04-27T07:54:31.680Z,15.87
2023-04-27T07:56:58.371Z,16.43
2023-04-27T07:59:24.991Z,16.82
2023-04-27T08:01:52.171Z,16.82
2023-04-27T08:04:18.921Z,16.36
2023-04-27T08:06:47.027Z,16.21
2023-04-27T08:09:14.242Z,16.82
2023-04-27T08:11:41.229Z,17.02
2023-04-27T08:14:13.472Z,17.65
2023-04-27T08:16:44.061Z,16.74
2023-04-27T08:19:11.648Z,16.85
2023-04-27T08:21:39.223Z,16.94
2023-04-27T08:24:07.083Z,16.66
2023-04-27T08:26:35.273Z,15.96
2023-04-27T08:29:11.723Z,16.41
2023-04-27T08:31:46.701Z,17.01
2023-04-27T08:34:13.447Z,16.43
2023-04-27T08:36:40.094Z,16.66
2023-04-27T08:39:07.876Z,16.50
2023-04-27T08:41:34.491Z,16.23
2023-04-27T08:44:01.139Z,16.17
2023-04-27T08:46:27.899Z,15.99
2023-04-27T08:48:55.145Z,15.93
2023-04-27T08:51:22.748Z,16.08
2023-04-27T08:53:52.088Z,16.17
2023-04-27T08:56:20.017Z,16.22
2023-04-27T08:58:46.688Z,16.47
2023-04-27T09:01:13.397Z,16.49
2023-04-27T09:03:40.091Z,16.98
2023-04-27T09:06:07.472Z,17.22
2023-04-27T09:08:47.621Z,17.39
2023-04-27T09:11:16.301Z,17.63
2023-04-27T09:13:45.487Z,17.61
2023-04-27T09:16:16.318Z,17.56
2023-04-27T09:18:43.740Z,17.53
2023-04-27T09:21:10.699Z,17.29
2023-04-27T09:23:39.337Z,17.53
2023-04-27T09:26:10.833Z,17.51
2023-04-27T09:28:41.338Z,17.17
2023-04-27T09:31:09.584Z,17.40
2023-04-27T09:33:36.396Z,16.14
2023-04-27T09:36:05.720Z,16.83
2023-04-27T09:38:33.275Z,16.80
2023-04-27T09:41:00.435Z,17.01
2023-04-27T09:43:28.816Z,17.17
2023-04-27T09:45:56.277Z,17.31
2023-04-27T09:48:24.062Z,17.51
2023-04-27T09:50:52.062Z,17.42
2023-04-27T09:53:21.078Z,16.67
2023-04-27T09:55:59.292Z,16.30
2023-04-27T09:58:37.044Z,17.12
2023-04-27T10:01:10.910Z,16.86
2023-04-27T10:04:09.000Z,17.17
2023-04-27T10:06:53.119Z,16.66
2023-04-27T10:09:26.322Z,16.95
2023-04-27T10:11:55.111Z,17.04
2023-04-27T10:14:23.872Z,17.27
2023-04-27T10:16:58.682Z,17.19
2023-04-27T10:19:26.000Z,17.19
2023-04-27T10:22:03.433Z,17.40
2023-04-27T10:24:37.991Z,17.72
2023-04-27T10:27:06.945Z,17.75
2023-04-27T10:29:51.510Z,18.26
2023-04-27T10:32:26.077Z,17.71
2023-04-27T10:35:04.139Z,17.06
2023-04-27T10:37:41.505Z,17.42
2023-04-27T10:40:10.388Z,17.78
2023-04-27T10:42:36.999Z,17.78
2023-04-27T10:45:04.252Z,17.65
2023-04-27T10:47:42.886Z,17.55
2023-04-27T10:50:14.408Z,17.92
2023-04-27T10:52:44.596Z,17.91
2023-04-27T10:55:20.254Z,17.78
2023-04-27T10:57:49.171Z,17.62
2023-04-27T11:00:37.724Z,17.47
2023-04-27T11:03:12.607Z,17.17
2023-04-27T11:05:39.373Z,17.13
2023-04-27T11:08:07.733Z,17.19
2023-04-27T11:10:37.760Z,16.58
2023-04-27T11:13:15.740Z,17.05
2023-04-27T11:16:04.665Z,17.14
2023-04-27T11:18:33.720Z,17.16
2023-04-27T11:21:15.263Z,17.24
2023-04-27T11:23:42.856Z,16.91
2023-04-27T11:26:29.695Z,17.62
2023-04-27T11:29:12.510Z,17.51
2023-04-27T11:31:47.681Z,17.64
2023-04-27T11:34:19.484Z,17.78
2023-04-27T11:37:14.356Z,17.44
2023-04-27T11:39:45.386Z,17.42
2023-04-27T11:42:18.556Z,17.15
2023-04-27T11:44:58.889Z,17.20
2023-04-27T11:47:27.832Z,17.12
2023-04-27T11:49:56.854Z,16.92
2023-04-27T11:52:29.309Z,16.79
2023-04-27T11:54:58.919Z,16.60
2023-04-27T11:57:30.056Z,16.67
2023-04-27T12:00:00.116Z,16.77
2023-04-27T12:02:28.424Z,16.79
2023-04-27T12:04:55.601Z,16.69
2023-04-27T12:07:22.266Z,16.90
2023-04-27T12:09:50.013Z,16.95
2023-04-27T12:12:22.403Z,17.12
2023-04-27T12:14:50.085Z,17.37
2023-04-27T12:17:17.092Z,17.72
2023-04-27T12:19:43.869Z,17.98
2023-04-27T12:22:10.986Z,18.29
2023-04-27T12:24:37.654Z,18.60
2023-04-27T12:27:05.078Z,18.64
2023-04-27T12:29:34.459Z,18.61
2023-04-27T12:32:01.173Z,18.73
2023-04-27T12:34:28.587Z,18.61
2023-04-27T12:36:55.268Z,18.51
2023-04-27T12:39:26.251Z,17.83
2023-04-27T12:41:53.896Z,18.85
2023-04-27T12:44:21.476Z,17.80
2023-04-27T12:46:48.682Z,18.16
2023-04-27T12:49:15.857Z,17.02
2023-04-27T12:51:42.633Z,15.98
2023-04-27T12:54:10.364Z,16.39
2023-04-27T12:56:37.240Z,14.95
2023-04-27T12:59:04.452Z,15.87
2023-04-27T13:01:31.750Z,15.45
2023-04-27T13:04:03.268Z,15.04
2023-04-27T13:06:31.280Z,15.46
2023-04-27T13:08:59.026Z,15.54
2023-04-27T13:11:26.713Z,15.18
2023-04-27T13:13:54.891Z,15.33
2023-04-27T13:16:22.800Z,15.03
2023-04-27T13:18:52.044Z,15.04
2023-04-27T13:21:19.307Z,15.63
2023-04-27T13:23:47.057Z,16.23
2023-04-27T13:26:15.812Z,16.45
2023-04-27T13:28:42.503Z,15.24
2023-04-27T13:31:09.199Z,15.67
2023-04-27T13:33:39.949Z,14.73
2023-04-27T13:36:06.894Z,15.36
2023-04-27T13:38:33.488Z,16.09
2023-04-27T13:41:00.169Z,16.24
2023-04-27T13:43:27.194Z,16.43
2023-04-27T13:45:55.714Z,15.89
2023-04-27T13:48:24.101Z,14.99
2023-04-27T13:50:51.242Z,15.15
2023-04-27T13:53:17.908Z,15.73
2023-04-27T13:55:44.838Z,16.38
2023-04-27T13:58:13.224Z,16.36
2023-04-27T14:00:39.899Z,16.73
2023-04-27T14:03:08.948Z,16.44
2023-04-27T14:05:35.848Z,16.24
2023-04-27T14:08:02.475Z,15.64
2023-04-27T14:10:30.415Z,15.68
2023-04-27T14:12:57.142Z,16.39
2023-04-27T14:15:23.817Z,16.44
2023-04-27T14:17:50.498Z,16.02
2023-04-27T14:20:17.147Z,16.69
2023-04-27T14:22:43.737Z,16.69
2023-04-27T14:25:10.661Z,16.87
2023-04-27T14:27:37.366Z,16.72
2023-04-27T14:30:04.472Z,16.46
2023-04-27T14:32:31.230Z,16.34
2023-04-27T14:34:57.871Z,16.41
2023-04-27T14:37:24.581Z,15.79
2023-04-27T14:39:51.131Z,15.86
2023-04-27T14:42:17.728Z,16.73
2023-04-27T14:44:44.372Z,17.44
2023-04-27T14:47:11.006Z,18.17
2023-04-27T14:49:38.102Z,17.56
2023-04-27T14:52:06.509Z,17.61
2023-04-27T14:54:33.134Z,17.55
2023-04-27T14:57:01.105Z,17.50
2023-04-27T14:59:27.800Z,17.17
2023-04-27T15:01:54.504Z,16.55
2023-04-27T15:04:21.437Z,16.18
2023-04-27T15:06:48.091Z,16.14
2023-04-27T15:09:14.905Z,16.60
2023-04-27T15:11:41.721Z,17.16
2023-04-27T15:14:08.702Z,17.94
2023-04-27T15:16:35.560Z,18.31
2023-04-27T15:19:02.414Z,16.82
2023-04-27T15:21:30.380Z,16.28
2023-04-27T15:23:57.215Z,15.93
2023-04-27T15:26:23.840Z,15.89
2023-04-27T15:28:50.751Z,16.13
2023-04-27T15:31:17.447Z,16.30
2023-04-27T15:33:44.076Z,16.29
2023-04-27T15:36:11.152Z,16.20
2023-04-27T15:38:37.778Z,15.71
2023-04-27T15:41:04.377Z,16.10
2023-04-27T15:43:30.978Z,16.15
2023-04-27T15:45:57.570Z,16.15
2023-04-27T15:48:25.204Z,16.21
2023-04-27T15:50:51.735Z,16.15
2023-04-27T15:53:18.434Z,15.32
2023-04-27T15:55:44.997Z,15.65
2023-04-27T15:58:11.605Z,15.54
2023-04-27T16:00:38.498Z,16.03
2023-04-27T16:03:09.402Z,16.12
2023-04-27T16:05:37.416Z,16.33
2023-04-27T16:08:04.356Z,16.55
2023-04-27T16:10:31.030Z,16.63
2023-04-27T16:12:57.628Z,16.45
2023-04-27T16:15:24.264Z,16.49
2023-04-27T16:17:50.919Z,16.13
2023-04-27T16:20:17.538Z,16.00
2023-04-27T16:22:44.203Z,15.79
2023-04-27T16:25:11.297Z,15.30
2023-04-27T16:27:38.734Z,15.39
2023-04-27T16:30:06.815Z,15.10
2023-04-27T16:32:35.304Z,14.94
2023-04-27T16:35:02.367Z,14.71
2023-04-27T16:37:28.968Z,14.72
2023-04-27T16:39:59.206Z,14.70
2023-04-27T16:42:25.796Z,14.44
2023-04-27T16:44:52.369Z,15.02
2023-04-27T16:47:19.023Z,14.60
2023-04-27T16:49:45.768Z,14.18
2023-04-27T16:52:12.664Z,14.48
2023-04-27T16:54:39.214Z,14.29
2023-04-27T16:57:07.749Z,14.25
2023-04-27T16:59:34.668Z,14.20
2023-04-27T17:02:12.519Z,14.15
2023-04-27T17:04:48.227Z,13.96
2023-04-27T17:07:15.067Z,14.04
2023-04-27T17:09:41.763Z,14.13
2023-04-27T17:12:12.272Z,13.76
2023-04-27T17:14:39.582Z,13.81
2023-04-27T17:17:06.740Z,14.08
2023-04-27T17:19:33.426Z,14.20
2023-04-27T17:22:00.076Z,14.15
2023-04-27T17:24:26.963Z,13.79
2023-04-27T17:26:53.535Z,13.74
2023-04-27T17:29:20.234Z,13.80
2023-04-27T17:31:46.935Z,13.53
2023-04-27T17:34:13.744Z,13.45
2023-04-27T17:36:40.381Z,13.49
2023-04-27T17:39:07.283Z,13.33
2023-04-27T17:41:36.223Z,13.46
2023-04-27T17:44:04.020Z,13.42
2023-04-27T17:46:30.730Z,13.55
2023-04-27T17:48:57.567Z,13.17
2023-04-27T17:51:24.105Z,13.60
2023-04-27T17:53:50.754Z,12.83
2023-04-27T17:56:17.257Z,13.64
2023-04-27T17:58:44.213Z,13.62
2023-04-27T18:01:11.759Z,13.60
2023-04-27T18:03:38.632Z,13.04
2023-04-27T18:06:05.577Z,12.93
2023-04-27T18:08:32.211Z,13.45
2023-04-27T18:10:58.828Z,13.40
2023-04-27T18:13:27.099Z,13.10
2023-04-27T18:15:53.685Z,13.27
2023-04-27T18:18:23.256Z,13.26
2023-04-27T18:20:51.738Z,12.87
2023-04-27T18:23:18.325Z,13.20
2023-04-27T18:25:44.988Z,13.03
2023-04-27T18:28:11.728Z,13.14
2023-04-27T18:30:38.901Z,13.12
2023-04-27T18:33:05.671Z,13.23
2023-04-27T18:35:32.469Z,13.09
2023-04-27T18:37:59.125Z,13.05
2023-04-27T18:40:26.297Z,12.87
2023-04-27T18:42:53.364Z,12.82
2023-04-27T18:45:20.332Z,12.61
2023-04-27T18:47:46.946Z,12.54
2023-04-27T18:50:13.636Z,12.91
2023-04-27T18:52:41.385Z,12.95
2023-04-27T18:55:08.788Z,12.72
2023-04-27T18:57:35.573Z,12.88
2023-04-27T19:00:05.941Z,13.07
2023-04-27T19:02:33.123Z,13.02
2023-04-27T19:05:11.399Z,13.08
2023-04-27T19:07:40.415Z,13.29
2023-04-27T19:10:08.006Z,13.33
2023-04-27T19:12:34.758Z,12.92
2023-04-27T19:15:01.553Z,12.78
2023-04-27T19:17:28.434Z,13.09
2023-04-27T19:19:55.362Z,13.09
2023-04-27T19:22:22.155Z,13.12
2023-04-27T19:24:48.952Z,13.16
2023-04-27T19:27:15.931Z,13.05
2023-04-27T19:29:56.510Z,13.01
2023-04-27T19:32:27.865Z,12.96
2023-04-27T19:34:56.466Z,13.21
2023-04-27T19:37:24.495Z,13.16
2023-04-27T19:39:51.364Z,13.08
2023-04-27T19:42:19.688Z,12.85
2023-04-27T19:44:46.749Z,12.92
2023-04-27T19:47:13.525Z,12.87
2023-04-27T19:49:40.403Z,12.80
2023-04-27T19:52:07.729Z,12.20
2023-04-27T19:54:36.326Z,12.14
2023-04-27T19:57:04.040Z,12.67
2023-04-27T19:59:30.815Z,12.61
2023-04-27T20:01:57.729Z,12.53
2023-04-27T20:04:24.855Z,12.51
2023-04-27T20:06:52.088Z,12.57
2023-04-27T20:09:18.836Z,11.93
2023-04-27T20:11:45.686Z,12.43
2023-04-27T20:14:12.968Z,12.02
2023-04-27T20:16:39.812Z,12.52
2023-04-27T20:19:06.618Z,12.21
2023-04-27T20:21:33.782Z,12.66
2023-04-27T20:24:00.652Z,12.62
2023-04-27T20:26:27.544Z,12.64
2023-04-27T20:28:54.168Z,12.81
2023-04-27T20:31:21.208Z,12.80
2023-04-27T20:33:47.831Z,12.73
2023-04-27T20:36:18.220Z,12.60
2023-04-27T20:38:46.313Z,12.61
2023-04-27T20:41:13.006Z,12.10
2023-04-27T20:43:40.137Z,11.42
2023-04-27T20:46:16.539Z,11.95
2023-04-27T20:48:43.179Z,12.17
2023-04-27T20:51:09.737Z,12.28
2023-04-27T20:53:36.340Z,12.02
2023-04-27T20:56:03.838Z,12.29
2023-04-27T20:58:30.403Z,11.93
2023-04-27T21:00:57.064Z,12.37
2023-04-27T21:03:23.923Z,12.45
2023-04-27T21:05:50.824Z,12.56
2023-04-27T21:08:17.956Z,12.59
2023-04-27T21:10:44.644Z,12.63
2023-04-27T21:13:11.361Z,12.49
2023-04-27T21:15:38.551Z,12.33
2023-04-27T21:18:07.897Z,12.65
2023-04-27T21:20:36.208Z,12.64
2023-04-27T21:23:02.953Z,12.70
2023-04-27T21:25:29.635Z,12.68
2023-04-27T21:27:56.194Z,12.65
2023-04-27T21:30:22.859Z,12.62
2023-04-27T21:32:49.674Z,12.64
2023-04-27T21:35:16.248Z,12.71
2023-04-27T21:37:42.825Z,12.77
2023-04-27T21:40:09.736Z,12.62
2023-04-27T21:42:36.368Z,12.44
2023-04-27T21:45:04.462Z,12.40
2023-04-27T21:47:31.232Z,12.35
2023-04-27T21:49:57.986Z,12.32
2023-04-27T21:52:24.687Z,11.82
2023-04-27T21:54:51.422Z,11.61
2023-04-27T21:57:19.908Z,11.65
2023-04-27T21:59:46.768Z,11.43
2023-04-27T22:02:13.630Z,11.56
2023-04-27T22:04:40.367Z,11.48
2023-04-27T22:07:10.412Z,11.53
2023-04-27T22:09:37.005Z,11.35
2023-04-27T22:12:04.213Z,11.79
2023-04-27T22:14:31.490Z,11.58
2023-04-27T22:16:58.384Z,11.88
2023-04-27T22:19:25.446Z,11.83
2023-04-27T22:21:52.133Z,11.12
2023-04-27T22:24:18.725Z,11.63
2023-04-27T22:26:45.752Z,11.67
2023-04-27T22:29:12.340Z,11.23
2023-04-27T22:31:39.302Z,11.01
2023-04-27T22:34:06.297Z,11.61
2023-04-27T22:36:33.505Z,11.44
2023-04-27T22:39:00.401Z,11.57
2023-04-27T22:41:26.994Z,11.57
2023-04-27T22:43:53.607Z,11.53
2023-04-27T22:46:20.221Z,11.61
2023-04-27T22:48:47.373Z,10.88
2023-04-27T22:51:14.079Z,11.62
2023-04-27T22:53:40.690Z,11.66
2023-04-27T22:56:07.548Z,11.71
2023-04-27T22:58:35.359Z,11.65
2023-04-27T23:01:02.405Z,11.28
2023-04-27T23:03:29.172Z,11.17
2023-04-27T23:05:55.847Z,11.65
2023-04-27T23:08:25.270Z,11.77
2023-04-27T23:10:54.980Z,11.33
2023-04-27T23:13:21.550Z,11.84
2023-04-27T23:15:48.353Z,11.84
2023-04-27T23:18:14.989Z,11.81
2023-04-27T23:20:41.606Z,11.06
2023-04-27T23:23:08.210Z,11.32
2023-04-27T23:25:34.806Z,11.21
2023-04-27T23:28:01.458Z,11.04
2023-04-27T23:30:28.110Z,10.73
2023-04-27T23:32:54.724Z,11.18
2023-04-27T23:35:21.486Z,10.17
2023-04-27T23:37:48.131Z,10.73
2023-04-27T23:40:14.839Z,10.92
2023-04-27T23:42:41.597Z,11.08
2023-04-27T23:45:08.538Z,10.99
2023-04-27T23:47:35.113Z,10.98
2023-04-27T23:50:03.017Z,10.91
2023-04-27T23:52:29.714Z,10.97
2023-04-27T23:54:58.015Z,10.99
2023-04-27T23:57:24.611Z,10.94
2023-04-27T23:59:51.171Z,10.41
